createdAt,value
2019-01-31T00:01:38.577Z,58.87
2019-01-31T00:06:47.031Z,60.33
2019-01-31T00:11:58.612Z,61.02
2019-01-31T00:17:10.281Z,54.55
2019-01-31T00:22:18.849Z,47.08
2019-01-31T00:27:39.687Z,45.80
2019-01-31T00:32:48.430Z,48.95
2019-01-31T00:37:54.051Z,47.35
2019-01-31T00:42:59.691Z,38.60
2019-01-31T00:48:05.319Z,44.80
2019-01-31T00:53:14.658Z,49.48
2019-01-31T00:58:23.005Z,56.77
2019-01-31T01:03:31.450Z,46.40
2019-01-31T01:08:37.094Z,48.65
2019-01-31T01:13:42.719Z,36.25
2019-01-31T01:18:48.343Z,36.28
2019-01-31T01:23:53.974Z,41.58
2019-01-31T01:28:59.610Z,48.58
2019-01-31T01:34:05.241Z,49.58
2019-01-31T01:39:19.233Z,34.70
2019-01-31T01:44:24.979Z,46.10
2019-01-31T01:49:30.603Z,35.80
2019-01-31T01:54:42.264Z,50.15
2019-01-31T01:59:48.058Z,47.60
2019-01-31T02:04:53.780Z,37.28
2019-01-31T02:09:59.407Z,47.90
2019-01-31T02:15:10.993Z,46.80
2019-01-31T02:20:16.627Z,46.58
2019-01-31T02:25:24.979Z,47.90
2019-01-31T02:30:42.575Z,44.18
2019-01-31T02:35:53.931Z,45.98
2019-01-31T02:41:02.324Z,48.63
2019-01-31T02:46:13.903Z,39.38
2019-01-31T02:51:36.087Z,42.00
2019-01-31T02:56:44.400Z,43.63
2019-01-31T03:01:50.040Z,43.50
2019-01-31T03:06:55.686Z,41.83
2019-01-31T03:12:03.952Z,41.53
2019-01-31T03:17:26.059Z,41.10
2019-01-31T03:22:47.034Z,42.15
2019-01-31T03:27:53.740Z,36.60
2019-01-31T03:33:16.222Z,39.42
2019-01-31T03:38:21.849Z,44.88
2019-01-31T03:43:33.472Z,47.60
2019-01-31T03:48:45.090Z,40.80
2019-01-31T03:53:59.477Z,45.95
2019-01-31T03:59:10.915Z,42.93
2019-01-31T04:04:32.970Z,44.73
2019-01-31T04:09:36.978Z,47.33
2019-01-31T04:14:40.998Z,63.92
2019-01-31T04:19:45.003Z,60.00
2019-01-31T04:24:49.012Z,48.85
2019-01-31T04:29:52.989Z,63.37
2019-01-31T04:34:56.937Z,92.27
2019-01-31T04:40:00.962Z,57.80
2019-01-31T04:45:06.149Z,60.17
2019-01-31T04:50:11.769Z,46.55
2019-01-31T04:55:16.001Z,49.27
2019-01-31T05:00:20.174Z,36.80
2019-01-31T05:05:24.161Z,41.53
2019-01-31T05:10:28.155Z,36.27
2019-01-31T05:15:32.170Z,37.70
2019-01-31T05:20:36.221Z,39.98
2019-01-31T05:25:40.301Z,34.48
2019-01-31T05:30:44.277Z,41.10
2019-01-31T05:35:48.190Z,41.17
2019-01-31T05:40:55.751Z,35.92
2019-01-31T05:45:57.815Z,34.10
2019-01-31T05:51:01.812Z,34.23
2019-01-31T05:56:05.914Z,32.80
2019-01-31T06:01:10.897Z,37.48
2019-01-31T06:06:14.880Z,39.95
2019-01-31T06:11:18.904Z,35.45
2019-01-31T06:16:22.897Z,36.53
2019-01-31T06:21:26.967Z,39.03
2019-01-31T06:26:30.946Z,34.98
2019-01-31T06:31:36.325Z,38.00
2019-01-31T06:36:40.250Z,37.85
2019-01-31T06:41:44.442Z,33.28
2019-01-31T06:46:48.457Z,52.15
2019-01-31T06:51:52.455Z,41.65
2019-01-31T06:56:56.469Z,39.42
2019-01-31T07:02:00.450Z,41.02
2019-01-31T07:07:04.466Z,44.30
2019-01-31T07:12:08.462Z,43.45
2019-01-31T07:17:12.445Z,44.38
2019-01-31T07:22:16.739Z,49.67
2019-01-31T07:27:20.731Z,40.17
2019-01-31T07:32:24.746Z,43.15
2019-01-31T07:37:28.692Z,52.83
2019-01-31T07:42:32.696Z,47.98
2019-01-31T07:47:36.970Z,57.30
2019-01-31T07:52:41.045Z,55.85
2019-01-31T07:57:45.042Z,74.35
2019-01-31T08:02:49.099Z,86.80
2019-01-31T08:07:54.167Z,101.15
2019-01-31T08:12:59.363Z,97.20
2019-01-31T08:18:03.348Z,73.78
2019-01-31T08:23:08.456Z,61.73
2019-01-31T08:28:12.466Z,82.02
2019-01-31T08:33:18.019Z,95.80
2019-01-31T08:38:22.033Z,111.80
2019-01-31T08:43:26.046Z,112.15
2019-01-31T08:48:30.047Z,89.37
2019-01-31T08:53:33.999Z,76.70
2019-01-31T08:58:39.372Z,69.53
2019-01-31T09:03:43.343Z,84.92
2019-01-31T09:08:47.343Z,80.83
2019-01-31T09:13:51.373Z,80.97
2019-01-31T09:18:55.471Z,67.45
2019-01-31T09:24:01.090Z,52.80
2019-01-31T09:29:25.133Z,66.75
2019-01-31T09:34:36.536Z,82.55
2019-01-31T09:39:49.037Z,80.12
2019-01-31T09:44:54.665Z,74.77
2019-01-31T09:50:06.508Z,65.32
2019-01-31T09:55:24.220Z,78.37
2019-01-31T10:00:35.855Z,79.87
2019-01-31T10:05:50.302Z,60.23
2019-01-31T10:10:56.010Z,73.28
2019-01-31T10:16:08.850Z,63.68
2019-01-31T10:21:29.485Z,65.37
2019-01-31T10:26:35.115Z,61.25
2019-01-31T10:31:40.818Z,80.67
2019-01-31T10:36:55.291Z,76.30
2019-01-31T10:42:03.679Z,60.40
2019-01-31T10:47:25.803Z,77.50
2019-01-31T10:52:31.452Z,60.12
2019-01-31T10:57:40.027Z,65.17
2019-01-31T11:02:48.791Z,62.00
2019-01-31T11:07:59.528Z,48.58
2019-01-31T11:13:21.340Z,53.45
2019-01-31T11:18:32.697Z,47.90
2019-01-31T11:23:38.322Z,50.92
2019-01-31T11:29:00.904Z,48.75
2019-01-31T11:34:18.525Z,50.58
2019-01-31T11:39:41.118Z,44.60
2019-01-31T11:45:03.559Z,52.90
2019-01-31T11:50:25.713Z,52.20
2019-01-31T11:55:37.202Z,43.10
2019-01-31T12:00:41.206Z,44.15
2019-01-31T12:05:45.236Z,47.50
2019-01-31T12:10:49.250Z,46.33
2019-01-31T12:15:53.495Z,49.00
2019-01-31T12:20:57.498Z,46.00
2019-01-31T12:26:01.514Z,54.95
2019-01-31T12:31:05.513Z,54.00
2019-01-31T12:36:09.493Z,53.78
2019-01-31T12:41:13.515Z,52.60
2019-01-31T12:46:17.510Z,43.00
2019-01-31T12:51:21.534Z,47.70
2019-01-31T12:56:25.530Z,47.10
2019-01-31T13:01:29.548Z,40.70
2019-01-31T13:06:33.566Z,39.50
2019-01-31T13:11:37.557Z,37.98
2019-01-31T13:16:41.575Z,39.92
2019-01-31T13:21:45.584Z,38.80
2019-01-31T13:26:49.588Z,32.78
2019-01-31T13:31:53.618Z,34.73
2019-01-31T13:36:57.633Z,40.20
2019-01-31T13:42:01.637Z,36.40
2019-01-31T13:47:05.618Z,37.03
2019-01-31T13:52:09.625Z,38.02
2019-01-31T13:57:13.646Z,40.20
2019-01-31T14:02:17.662Z,37.53
2019-01-31T14:07:21.665Z,46.75
2019-01-31T14:12:25.742Z,48.50
2019-01-31T14:17:30.155Z,72.97
2019-01-31T14:22:42.851Z,100.78
2019-01-31T14:27:39.815Z,75.20
2019-01-31T14:32:44.496Z,63.63
2019-01-31T14:37:49.967Z,50.70
2019-01-31T14:42:54.144Z,52.95
2019-01-31T14:47:58.181Z,70.12
2019-01-31T14:53:02.221Z,88.40
2019-01-31T14:58:06.951Z,74.50
2019-01-31T15:03:10.949Z,73.35
2019-01-31T15:08:14.961Z,72.17
2019-01-31T15:13:18.948Z,79.58
2019-01-31T15:18:23.000Z,112.83
2019-01-31T15:23:27.108Z,120.85
2019-01-31T15:28:31.156Z,148.40
2019-01-31T15:33:35.195Z,146.93
2019-01-31T15:38:39.189Z,130.35
2019-01-31T15:43:43.192Z,113.17
2019-01-31T15:48:47.267Z,72.08
2019-01-31T15:53:51.396Z,59.87
2019-01-31T15:58:55.395Z,56.98
2019-01-31T16:04:01.077Z,61.18
2019-01-31T16:09:06.123Z,105.37
2019-01-31T16:14:10.227Z,77.45
2019-01-31T16:19:14.203Z,98.65
2019-01-31T16:24:21.150Z,77.12
2019-01-31T16:29:25.423Z,86.35
2019-01-31T16:34:29.468Z,72.55
2019-01-31T16:39:33.470Z,71.62
2019-01-31T16:44:37.538Z,50.10
2019-01-31T16:49:41.562Z,90.72
2019-01-31T16:54:45.804Z,88.58
2019-01-31T16:59:49.838Z,96.60
2019-01-31T17:04:54.102Z,79.37
2019-01-31T17:09:58.176Z,78.47
2019-01-31T17:15:02.306Z,86.95
2019-01-31T17:20:14.017Z,76.50
2019-01-31T17:25:18.164Z,85.62
2019-01-31T17:30:24.982Z,87.27
2019-01-31T17:35:29.094Z,93.75
2019-01-31T17:40:34.739Z,93.72
2019-01-31T17:45:38.743Z,89.87
2019-01-31T17:50:42.835Z,81.70
2019-01-31T17:55:46.759Z,93.10
2019-01-31T18:00:52.433Z,93.22
2019-01-31T18:05:56.433Z,104.32
2019-01-31T18:11:00.468Z,102.02
2019-01-31T18:16:04.544Z,129.32
2019-01-31T18:21:08.574Z,115.03
2019-01-31T18:26:12.582Z,95.77
2019-01-31T18:31:16.607Z,106.15
2019-01-31T18:36:20.687Z,102.30
2019-01-31T18:41:24.825Z,107.12
2019-01-31T18:46:28.879Z,117.05
2019-01-31T18:51:33.093Z,88.47
2019-01-31T18:56:37.118Z,77.27
2019-01-31T19:01:41.199Z,63.55
2019-01-31T19:06:45.214Z,74.30
2019-01-31T19:11:49.225Z,91.57
2019-01-31T19:16:53.258Z,105.85
2019-01-31T19:21:57.364Z,109.67
2019-01-31T19:27:01.502Z,106.12
2019-01-31T19:32:05.602Z,95.92
2019-01-31T19:37:12.929Z,82.67
2019-01-31T19:42:17.145Z,105.97
2019-01-31T19:47:21.152Z,89.50
2019-01-31T19:52:25.186Z,84.22
2019-01-31T19:57:30.882Z,88.70
2019-01-31T20:02:34.905Z,88.05
2019-01-31T20:07:38.978Z,82.62
2019-01-31T20:12:42.974Z,85.38
2019-01-31T20:17:47.572Z,92.97
2019-01-31T20:22:53.219Z,107.70
2019-01-31T20:27:57.169Z,102.73
2019-01-31T20:33:01.351Z,121.07
2019-01-31T20:38:05.474Z,114.23
2019-01-31T20:43:10.663Z,109.73
2019-01-31T20:48:14.662Z,111.80
2019-01-31T20:53:18.755Z,112.73
2019-01-31T20:58:23.200Z,110.77
2019-01-31T21:03:27.284Z,107.73
2019-01-31T21:08:34.266Z,99.97
2019-01-31T21:13:37.020Z,114.83
2019-01-31T21:18:41.059Z,129.30
2019-01-31T21:23:45.070Z,122.37
2019-01-31T21:28:49.211Z,114.70
2019-01-31T21:33:53.215Z,99.43
2019-01-31T21:38:57.262Z,96.17
2019-01-31T21:44:01.343Z,90.20
2019-01-31T21:49:05.415Z,86.60
2019-01-31T21:54:09.408Z,75.83
2019-01-31T21:59:13.602Z,95.23
2019-01-31T22:04:17.654Z,95.80
2019-01-31T22:09:22.759Z,91.90
2019-01-31T22:14:26.797Z,93.33
2019-01-31T22:19:30.812Z,83.33
2019-01-31T22:24:34.860Z,92.90
2019-01-31T22:29:38.964Z,93.33
2019-01-31T22:34:44.151Z,84.97
2019-01-31T22:39:48.143Z,83.82
2019-01-31T22:44:52.220Z,89.63
2019-01-31T22:49:56.413Z,76.63
2019-01-31T22:55:00.611Z,84.83
2019-01-31T23:00:11.006Z,82.97
2019-01-31T23:05:15.054Z,71.97
2019-01-31T23:10:19.069Z,76.60
2019-01-31T23:15:23.166Z,78.27
2019-01-31T23:20:29.246Z,73.02
2019-01-31T23:25:40.346Z,84.93
2019-01-31T23:30:39.406Z,92.30
2019-01-31T23:35:43.473Z,89.75
2019-01-31T23:40:47.558Z,109.10
2019-01-31T23:45:51.588Z,101.47
2019-01-31T23:50:55.576Z,99.80
2019-01-31T23:55:59.599Z,101.50
